Time;durP1;ratioP1;P1;durP2;ratioP2;P2;SDS_P1;SDS_P2;PMS_P1;PMS_P2;Temp;Humidity;BMP_temperature;BMP_pressure;BME280_temperature;BME280_humidity;BME280_pressure;Samples;Min_cycle;Max_cycle;Signal;HPM_P1;HPM_P2
2024/04/12 05:11:54;;;;;;;;;;;;;;;9.14;100.00;101254.44;5666359;21;20372;-82
2024/04/12 05:17:04;;;;;;;;;;;;;;;9.13;100.00;101252.72;5327084;26;19938;-83
2024/04/12 05:19:32;;;;;;;;;;;;;;;9.12;100.00;101250.97;5326800;26;19938;-84
2024/04/12 05:22:03;;;;;;;;;;;;;;;9.15;100.00;101253.56;5297547;26;20381;-85
2024/04/12 05:24:29;;;;;;;;;;;;;;;9.17;100.00;101258.84;5297273;26;19938;-84
2024/04/12 05:27:01;;;;;;;;;;;;;;;9.15;100.00;101261.50;5309820;26;19931;-83
2024/04/12 05:29:28;;;;;;;;;;;;;;;9.13;100.00;101271.22;5326561;26;19937;-84
2024/04/12 05:31:56;;;;;;;;;;;;;;;9.15;100.00;101272.06;5327936;26;19930;-83
2024/04/12 05:34:21;;;;;;;;;;;;;;;9.19;100.00;101287.03;5329999;26;20018;-84
2024/04/12 05:36:47;;;;;;;;;;;;;;;9.18;100.00;101287.91;5330518;26;19938;-81
2024/04/12 05:39:13;;;;;;;;;;;;;;;9.13;100.00;101287.09;5330579;26;20513;-82
2024/04/12 05:41:38;;;;;;;;;;;;;;;9.12;100.00;101287.97;5328492;26;19934;-83
2024/04/12 05:44:06;;;;;;;;;;;;;;;9.15;100.00;101280.00;5329825;26;19930;-83
2024/04/12 05:46:33;;;;;;;;;;;;;;;9.14;100.00;101283.53;5329567;26;19937;-89
2024/04/12 05:49:09;;;;;;;;;;;;;;;9.13;100.00;101271.22;5300285;26;20361;-84
2024/04/12 05:51:38;;;;;;;;;;;;;;;9.16;100.00;101283.53;5329735;26;20304;-84
2024/04/12 05:54:10;;;;;;;;;;;;;;;9.15;100.00;101290.59;5329817;26;20022;-85
2024/04/12 05:56:41;;;;;;;;;;;;;;;9.17;100.00;101286.16;5297849;26;20280;-84
2024/04/12 05:59:13;;;;;;;;;;;;;;;9.17;100.00;101288.78;5329889;26;20336;-84
2024/04/12 06:01:43;;;;;;;;;;;;;;;9.17;100.00;101287.94;5330313;26;19938;-84
2024/04/12 06:04:10;;;;;;;;;;;;;;;9.14;100.00;101288.81;5330016;26;19931;-83
2024/04/12 06:06:36;;;;;;;;;;;;;;;9.13;100.00;101292.38;5329622;26;19938;-83
2024/04/12 06:09:05;;;;;;;;;;;;;;;9.18;100.00;101284.41;5330453;26;19934;-85
2024/04/12 06:11:31;;;;;;;;;;;;;;;9.18;100.00;101293.19;5326841;26;21463;-84
2024/04/12 06:14:01;;;;;;;;;;;;;;;9.20;100.00;101291.41;5329453;26;19939;-84
2024/04/12 06:16:27;;;;;;;;;;;;;;;9.17;100.00;101288.78;5329429;26;19981;-85
2024/04/12 06:18:52;;;;;;;;;;;;;;;9.20;100.00;101286.09;5330591;26;19938;-90
2024/04/12 06:21:18;;;;;;;;;;;;;;;9.21;100.00;101285.22;5329799;26;19931;-83
2024/04/12 06:23:44;;;;;;;;;;;;;;;9.22;100.00;101286.09;5329249;26;20427;-83
2024/04/12 06:26:09;;;;;;;;;;;;;;;9.22;100.00;101288.72;5328400;26;19942;-81
2024/04/12 06:28:37;;;;;;;;;;;;;;;9.18;100.00;101293.19;5330160;26;20274;-83
2024/04/12 06:31:02;;;;;;;;;;;;;;;9.17;100.00;101288.78;5329521;26;19938;-84
2024/04/12 06:33:28;;;;;;;;;;;;;;;9.18;100.00;101279.97;5329162;26;19937;-82
2024/04/12 06:36:03;;;;;;;;;;;;;;;9.21;100.00;101279.94;5330221;26;19930;-83
2024/04/12 06:38:29;;;;;;;;;;;;;;;9.19;100.00;101278.19;5329356;26;19941;-83
2024/04/12 06:40:57;;;;;;;;;;;;;;;9.22;100.00;101288.72;5297996;26;19936;-83
2024/04/12 06:43:23;;;;;;;;;;;;;;;9.21;100.00;101287.00;5328413;26;19935;-83
2024/04/12 06:45:57;;;;;;;;;;;;;;;9.23;100.00;101282.56;5329023;26;20396;-85
2024/04/12 06:48:26;;;;;;;;;;;;;;;9.21;100.00;101276.44;5330006;26;19999;-84
2024/04/12 06:50:55;;;;;;;;;;;;;;;9.18;100.00;101290.56;5329354;26;19941;-83
2024/04/12 06:53:23;;;;;;;;;;;;;;;9.23;100.00;101288.72;5329107;26;19937;-83
2024/04/12 06:56:06;;;;;;;;;;;;;;;9.26;100.00;101290.47;5328263;26;20370;-83
2024/04/12 06:58:34;;;;;;;;;;;;;;;9.25;100.00;101299.28;5329650;26;19935;-84
2024/04/12 07:01:05;;;;;;;;;;;;;;;9.27;100.00;101289.56;5328765;26;19962;-86
2024/04/12 07:03:30;;;;;;;;;;;;;;;9.30;100.00;101286.84;5298181;26;19981;-84
2024/04/12 07:44:54;;;;;;;;;;;;;;;9.29;100.00;101298.34;5360064;26;20364;-82
2024/04/12 07:47:29;;;;;;;;;;;;;;;9.25;100.00;101299.28;5332565;26;20366;-84
2024/04/12 07:49:54;;;;;;;;;;;;;;;9.32;100.00;101297.41;5332520;26;19999;-84
2024/04/12 07:52:20;;;;;;;;;;;;;;;9.33;100.00;101300.03;5362695;26;19976;-84
2024/04/12 07:54:53;;;;;;;;;;;;;;;9.35;100.00;101294.72;5331778;26;20254;-83
2024/04/12 07:57:25;;;;;;;;;;;;;;;9.34;100.00;101296.50;5360914;26;19934;-84
2024/04/12 07:59:50;;;;;;;;;;;;;;;9.34;100.00;101287.72;5362842;26;19941;-83
2024/04/12 08:02:17;;;;;;;;;;;;;;;9.33;100.00;101284.16;5362936;26;19930;-83
2024/04/12 08:04:45;;;;;;;;;;;;;;;9.32;100.00;101287.72;5362789;26;19932;-84
2024/04/12 08:07:17;;;;;;;;;;;;;;;9.33;100.00;101284.16;5363581;26;19936;-82
2024/04/12 08:09:44;;;;;;;;;;;;;;;9.34;100.00;101285.94;5362640;26;20016;-83
2024/04/12 08:12:23;;;;;;;;;;;;;;;9.42;100.00;101286.69;5362022;26;19929;-83
2024/04/12 08:14:52;;;;;;;;;;;;;;;9.40;100.00;101291.13;5362984;26;20271;-83
2024/04/12 08:17:23;;;;;;;;;;;;;;;9.36;100.00;101286.78;5362157;26;21368;-82
2024/04/12 08:19:48;;;;;;;;;;;;;;;9.37;100.00;101285.03;5362760;26;19930;-84
2024/04/12 08:22:18;;;;;;;;;;;;;;;9.39;100.00;101289.38;5362515;26;20373;-83
2024/04/12 08:24:49;;;;;;;;;;;;;;;9.47;100.00;101289.28;5362359;26;20005;-84
2024/04/12 08:27:18;;;;;;;;;;;;;;;9.52;100.00;101303.31;5330701;26;19953;-83
2024/04/12 08:29:44;;;;;;;;;;;;;;;9.44;100.00;101300.78;5362510;26;19936;-84
2024/04/12 08:34:36;;;;;;;;;;;;;;;9.72;100.00;101302.16;5361739;26;20187;-84
2024/04/12 08:37:03;;;;;;;;;;;;;;;9.77;100.00;101293.22;5362862;26;19933;-83
2024/04/12 08:39:42;;;;;;;;;;;;;;;9.50;100.00;101297.16;5362572;26;19937;-82
2024/04/12 08:42:10;;;;;;;;;;;;;;;9.67;100.00;101293.38;5360709;26;19933;-83
2024/04/12 08:44:36;;;;;;;;;;;;;;;9.54;100.00;101298.88;5361918;26;19937;-84
2024/04/12 08:49:48;;;;;;;;;;;;;;;9.60;100.00;101297.91;5362939;26;20284;-84
2024/04/12 08:52:30;;;;;;;;;;;;;;;9.49;100.00;101292.75;5361980;26;19938;-83
2024/04/12 08:54:59;;;;;;;;;;;;;;;9.51;100.00;101285.69;5361883;26;19930;-84
2024/04/12 08:57:24;;;;;;;;;;;;;;;9.68;100.00;101287.22;5329202;26;19936;-84
2024/04/12 08:59:58;;;;;;;;;;;;;;;9.66;100.00;101287.22;5362106;26;19934;-83
2024/04/12 09:02:26;;;;;;;;;;;;;;;9.66;100.00;101286.38;5363218;26;19930;-84
2024/04/12 09:04:54;;;;;;;;;;;;;;;9.64;100.00;101291.69;5363081;26;19930;-84
2024/04/12 09:07:20;;;;;;;;;;;;;;;9.66;100.00;101286.38;5363520;26;20593;-83
2024/04/12 09:09:56;;;;;;;;;;;;;;;9.66;100.00;101287.22;5364920;26;20353;-84
2024/04/12 09:12:24;;;;;;;;;;;;;;;9.84;100.00;101291.34;5363847;26;19938;-84
2024/04/12 09:14:53;;;;;;;;;;;;;;;9.87;100.00;101286.00;5365247;26;20426;-84
2024/04/12 09:17:24;;;;;;;;;;;;;;;9.65;100.00;101285.47;5334756;26;19937;-84
2024/04/12 09:19:50;;;;;;;;;;;;;;;9.50;100.00;101283.94;5365257;26;19942;-84
2024/04/12 09:22:17;;;;;;;;;;;;;;;9.55;100.00;101290.03;5365743;26;19930;-84
2024/04/12 09:24:48;;;;;;;;;;;;;;;9.55;100.00;101286.53;5364963;26;19934;-84
2024/04/12 09:27:22;;;;;;;;;;;;;;;9.52;100.00;101278.63;5363737;26;19930;-83
2024/04/12 09:29:54;;;;;;;;;;;;;;;9.55;100.00;101282.09;5364660;26;20405;-82
2024/04/12 09:35:04;;;;;;;;;;;;;;;9.91;100.00;101274.50;5365405;26;19937;-84
2024/04/12 09:37:30;;;;;;;;;;;;;;;9.62;100.00;101278.47;5365013;26;19942;-83
2024/04/12 09:42:47;;;;;;;;;;;;;;;9.63;100.00;101272.25;5363781;26;20277;-87
2024/04/12 09:45:17;;;;;;;;;;;;;;;9.76;100.00;101270.28;5365110;26;19930;-83
2024/04/12 10:37:39;;;;;;;;;;;;;;;9.74;100.00;101252.72;5364470;26;19999;-85
2024/04/12 10:40:09;;;;;;;;;;;;;;;9.80;100.00;101249.97;5333710;26;19937;-83
2024/04/12 10:42:34;;;;;;;;;;;;;;;9.76;100.00;101246.47;5362072;26;19930;-85
2024/04/12 10:45:01;;;;;;;;;;;;;;;9.72;100.00;101249.22;5364459;26;20272;-83
2024/04/12 10:47:28;;;;;;;;;;;;;;;9.83;100.00;101249.91;5334227;26;20324;-84
2024/04/12 10:49:56;;;;;;;;;;;;;;;9.88;100.00;101245.41;5363677;26;19941;-86
2024/04/12 10:52:28;;;;;;;;;;;;;;;9.81;100.00;101244.66;5333980;26;19930;-85
2024/04/12 10:55:09;;;;;;;;;;;;;;;9.78;100.00;101249.09;5363412;26;20262;-82
2024/04/12 10:57:40;;;;;;;;;;;;;;;9.80;100.00;101239.38;5362003;26;19933;-82
2024/04/12 11:00:06;;;;;;;;;;;;;;;9.78;100.00;101239.41;5364336;26;19968;-82
2024/04/12 11:02:33;;;;;;;;;;;;;;;9.76;100.00;101235.03;5364143;26;19929;-83
2024/04/12 11:07:44;;;;;;;;;;;;;;;9.90;100.00;101237.44;5364201;26;20367;-83
2024/04/12 11:10:23;;;;;;;;;;;;;;;9.87;100.00;101232.19;5333149;26;19929;-84
2024/04/12 11:12:51;;;;;;;;;;;;;;;10.07;100.00;101239.78;5361967;26;19930;-86
2024/04/12 11:31:39;;;;;;;;;;;;;;;9.83;100.00;101231.38;5363241;26;19937;-83
2024/04/12 11:34:06;;;;;;;;;;;;;;;9.86;100.00;101230.44;5363894;26;19998;-86
2024/04/12 11:36:33;;;;;;;;;;;;;;;9.80;100.00;101242.03;5363462;26;19930;-83
2024/04/12 11:39:17;;;;;;;;;;;;;;;9.88;100.00;101233.97;5363018;26;19945;-83
2024/04/12 11:41:44;;;;;;;;;;;;;;;9.89;100.00;101231.28;5361763;26;19935;-83
2024/04/12 11:44:10;;;;;;;;;;;;;;;9.84;100.00;101232.25;5363285;26;19929;-83
2024/04/12 11:46:35;;;;;;;;;;;;;;;9.85;100.00;101232.22;5362837;26;19930;-85
2024/04/12 11:49:07;;;;;;;;;;;;;;;9.88;100.00;101228.66;5362932;26;19930;-84
2024/04/12 11:51:33;;;;;;;;;;;;;;;9.91;100.00;101221.53;5332378;26;19937;-83
2024/04/12 11:53:59;;;;;;;;;;;;;;;9.86;100.00;101215.44;5333186;26;19941;-82
2024/04/12 11:56:34;;;;;;;;;;;;;;;9.81;100.00;101212.00;5361357;26;19937;-83
2024/04/12 11:59:00;;;;;;;;;;;;;;;9.83;100.00;101210.22;5362637;26;20489;-82
2024/04/12 12:01:28;;;;;;;;;;;;;;;9.99;100.00;101211.69;5364280;26;19930;-83
2024/04/12 12:03:54;;;;;;;;;;;;;;;9.93;100.00;101202.97;5363054;26;19930;-83
2024/04/12 12:06:22;;;;;;;;;;;;;;;9.92;100.00;101198.56;5364225;26;19999;-81
2024/04/12 12:08:56;;;;;;;;;;;;;;;10.28;100.00;101197.03;5362272;26;20268;-82
2024/04/12 12:11:21;;;;;;;;;;;;;;;10.03;100.00;101198.38;5361040;26;19990;-82
2024/04/12 12:13:46;;;;;;;;;;;;;;;10.03;100.00;101191.31;5362921;26;19930;-83
2024/04/12 12:16:14;;;;;;;;;;;;;;;9.98;100.00;101180.78;5363207;26;19933;-82
2024/04/12 12:18:40;;;;;;;;;;;;;;;9.93;100.00;101182.66;5362153;26;19937;-82
2024/04/12 12:21:05;;;;;;;;;;;;;;;9.89;100.00;101174.78;5362971;26;19929;-83
2024/04/12 12:23:30;;;;;;;;;;;;;;;10.10;100.00;101170.88;5332658;26;19930;-81
2024/04/12 12:25:58;;;;;;;;;;;;;;;10.04;100.00;101165.72;5362658;26;19942;-80
2024/04/12 12:28:24;;;;;;;;;;;;;;;10.19;100.00;101178.66;5360816;26;19984;-83
2024/04/12 12:30:54;;;;;;;;;;;;;;;10.12;100.00;101169.09;5333096;26;19937;-83
2024/04/12 12:33:19;;;;;;;;;;;;;;;10.13;100.00;101162.88;5363084;26;19934;-83
2024/04/12 12:35:45;;;;;;;;;;;;;;;10.16;100.00;101161.06;5362742;26;19934;-83
2024/04/12 12:38:11;;;;;;;;;;;;;;;10.13;100.00;101165.53;5362219;26;19930;-85
2024/04/12 12:40:38;;;;;;;;;;;;;;;10.21;100.00;101163.63;5362483;26;20000;-84
2024/04/12 12:43:04;;;;;;;;;;;;;;;10.25;100.00;101165.28;5363195;26;20450;-82
2024/04/12 12:45:30;;;;;;;;;;;;;;;10.36;100.00;101158.03;5366665;26;19930;-82
2024/04/12 12:47:55;;;;;;;;;;;;;;;10.18;100.00;101155.72;5335252;26;20358;-83
2024/04/12 12:50:22;;;;;;;;;;;;;;;10.23;100.00;101155.63;5365371;26;19930;-83
2024/04/12 12:52:51;;;;;;;;;;;;;;;10.15;100.00;101151.34;5365528;26;19930;-82
2024/04/12 12:55:21;;;;;;;;;;;;;;;10.10;100.00;101149.69;5365446;26;19941;-81
2024/04/12 12:57:47;;;;;;;;;;;;;;;9.96;100.00;101137.59;5364249;26;19937;-83
2024/04/12 13:00:18;;;;;;;;;;;;;;;10.36;100.00;101135.97;5365150;26;19929;-82
2024/04/12 13:02:44;;;;;;;;;;;;;;;10.54;100.00;101130.28;5364820;26;19933;-81
2024/04/12 13:05:14;;;;;;;;;;;;;;;10.31;100.00;101116.63;5365722;26;20265;-83
2024/04/12 13:07:39;;;;;;;;;;;;;;;10.14;100.00;101116.97;5365235;26;19938;-82
2024/04/12 13:10:12;;;;;;;;;;;;;;;10.45;100.00;101114.59;5365220;26;20271;-83
2024/04/12 13:12:38;;;;;;;;;;;;;;;10.37;100.00;101100.63;5364152;26;19934;-82
2024/04/12 13:15:03;;;;;;;;;;;;;;;10.46;100.00;101107.50;5364782;26;19930;-83
2024/04/12 13:17:36;;;;;;;;;;;;;;;10.28;100.00;101114.91;5365477;26;19936;-83
2024/04/12 13:20:05;;;;;;;;;;;;;;;10.13;100.00;101099.31;5365150;26;19929;-89
2024/04/12 13:22:32;;;;;;;;;;;;;;;10.22;100.00;101091.19;5365731;26;19933;-84
2024/04/12 13:24:57;;;;;;;;;;;;;;;10.39;100.00;101098.81;5365577;26;19929;-83
2024/04/12 13:27:29;;;;;;;;;;;;;;;10.56;100.00;101095.78;5363369;26;19930;-89
2024/04/12 13:29:55;;;;;;;;;;;;;;;10.43;100.00;101089.88;5364747;26;19934;-84
2024/04/12 13:32:20;;;;;;;;;;;;;;;10.46;100.00;101088.97;5364778;26;19937;-83
2024/04/12 13:34:46;;;;;;;;;;;;;;;10.51;100.00;101095.03;5365443;26;19941;-85
2024/04/12 13:37:13;;;;;;;;;;;;;;;10.43;100.00;101104.91;5365111;26;19930;-84
2024/04/12 13:39:39;;;;;;;;;;;;;;;10.28;100.00;101092.84;5364754;26;20002;-83
2024/04/12 13:42:10;;;;;;;;;;;;;;;10.25;100.00;101085.81;5332461;26;20316;-83
2024/04/12 13:52:48;;;;;;;;;;;;;;;10.22;100.00;101085.03;5363948;26;20387;-84
2024/04/12 13:55:14;;;;;;;;;;;;;;;10.20;100.00;101086.84;5364750;26;19937;-83
2024/04/12 13:57:40;;;;;;;;;;;;;;;10.16;100.00;101071.00;5363589;26;20406;-84
2024/04/12 14:00:13;;;;;;;;;;;;;;;10.35;100.00;101070.63;5364833;26;20362;-84
2024/04/12 14:02:38;;;;;;;;;;;;;;;10.29;100.00;101076.03;5364091;26;19930;-85
2024/04/12 14:05:03;;;;;;;;;;;;;;;10.45;100.00;101071.31;5364712;26;19930;-83
2024/04/12 14:07:34;;;;;;;;;;;;;;;10.46;100.00;101065.09;5365241;26;19936;-82
2024/04/12 14:10:04;;;;;;;;;;;;;;;10.34;100.00;101067.13;5364382;26;20349;-83
2024/04/12 14:12:30;;;;;;;;;;;;;;;10.16;100.00;101071.00;5362347;26;19936;-85
2024/04/12 14:14:55;;;;;;;;;;;;;;;10.27;100.00;101060.16;5364916;26;19934;-81
2024/04/12 14:17:22;;;;;;;;;;;;;;;10.30;100.00;101060.09;5365122;26;19933;-83
2024/04/12 14:19:48;;;;;;;;;;;;;;;10.49;100.00;101055.31;5364157;26;19954;-86
2024/04/12 14:22:13;;;;;;;;;;;;;;;10.16;100.00;101052.47;5364362;26;19929;-85
2024/04/12 14:25:01;;;;;;;;;;;;;;;10.24;100.00;101051.41;5365956;26;19930;-83
2024/04/12 14:27:26;;;;;;;;;;;;;;;10.14;100.00;101045.44;5363139;26;19937;-85
2024/04/12 14:29:52;;;;;;;;;;;;;;;10.19;100.00;101043.56;5364301;26;19934;-84
2024/04/12 14:32:17;;;;;;;;;;;;;;;10.27;100.00;101049.56;5365045;26;19929;-86
2024/04/12 14:34:46;;;;;;;;;;;;;;;10.35;100.00;101047.69;5364190;26;19937;-85
2024/04/12 14:37:15;;;;;;;;;;;;;;;10.46;100.00;101035.97;5363816;26;19936;-83
2024/04/12 14:39:42;;;;;;;;;;;;;;;10.51;100.00;101042.91;5363488;26;20406;-84
2024/04/12 14:42:08;;;;;;;;;;;;;;;10.27;100.00;101040.75;5333772;26;19999;-82
2024/04/12 14:44:36;;;;;;;;;;;;;;;10.20;100.00;101044.47;5363713;26;20913;-83
2024/04/12 14:47:01;;;;;;;;;;;;;;;10.21;100.00;101032.94;5365167;26;19957;-92
2024/04/12 14:49:27;;;;;;;;;;;;;;;10.28;100.00;101031.91;5334219;26;20000;-83
2024/04/12 14:51:55;;;;;;;;;;;;;;;10.43;100.00;101033.38;5363460;26;20361;-83
2024/04/12 14:54:21;;;;;;;;;;;;;;;10.42;100.00;101031.63;5334871;26;20367;-87
2024/04/12 14:56:47;;;;;;;;;;;;;;;10.47;100.00;101032.41;5362154;26;19999;-84
2024/04/12 14:59:14;;;;;;;;;;;;;;;10.64;100.00;101021.41;5363657;26;19942;-84
2024/04/12 15:01:39;;;;;;;;;;;;;;;10.23;100.00;101024.06;5363929;26;19940;-82
2024/04/12 15:53:18;;;;;;;;;;;;;;;10.24;100.00;101001.09;5382182;26;19930;-83
2024/04/12 15:55:32;;;;;;;;;;;;;;;10.23;100.00;100986.97;5354515;26;19965;-88
2024/04/12 16:11:36;;;;;;;;;;;;;;;10.23;100.00;100973.75;5379676;26;19936;-82
2024/04/12 16:14:03;;;;;;;;;;;;;;;10.26;100.00;100970.13;5381606;26;19929;-81
2024/04/12 16:16:29;;;;;;;;;;;;;;;10.31;100.00;100974.44;5378982;26;19957;-81
2024/04/12 16:18:54;;;;;;;;;;;;;;;10.29;100.00;100976.25;5381941;26;19936;-82
2024/04/12 16:21:20;;;;;;;;;;;;;;;10.30;100.00;100971.81;5379724;26;19937;-81
2024/04/12 16:23:45;;;;;;;;;;;;;;;10.24;100.00;100967.50;5379569;26;19940;-82
2024/04/12 16:26:11;;;;;;;;;;;;;;;10.28;100.00;100969.19;5349090;26;20398;-82
2024/04/12 16:28:36;;;;;;;;;;;;;;;10.26;100.00;100973.66;5379196;26;20261;-82
2024/04/12 16:31:01;;;;;;;;;;;;;;;10.33;100.00;100971.78;5348042;26;19936;-84
2024/04/12 16:33:27;;;;;;;;;;;;;;;10.27;100.00;100969.22;5349005;26;19937;-84
2024/04/12 16:35:52;;;;;;;;;;;;;;;10.23;100.00;100975.50;5379466;26;19929;-84
2024/04/12 16:38:18;;;;;;;;;;;;;;;10.29;100.00;100970.94;5372889;26;19937;-87
2024/04/12 16:40:45;;;;;;;;;;;;;;;11.04;100.00;100964.72;5351200;26;20006;-82
2024/04/12 16:43:12;;;;;;;;;;;;;;;10.56;100.00;100957.97;5346876;26;19929;-88
2024/04/12 16:45:38;;;;;;;;;;;;;;;10.43;100.00;100972.44;5348399;26;19930;-83
2024/04/12 16:48:03;;;;;;;;;;;;;;;10.36;100.00;100961.97;5379506;26;19929;-83
2024/04/12 16:50:29;;;;;;;;;;;;;;;10.41;100.00;100975.13;5379022;26;19998;-83
2024/04/12 16:52:55;;;;;;;;;;;;;;;10.48;100.00;100976.72;5350191;26;20369;-87
2024/04/12 16:55:21;;;;;;;;;;;;;;;10.43;100.00;100980.38;5347823;26;19929;-83
2024/04/12 16:57:46;;;;;;;;;;;;;;;10.34;100.00;100976.19;5379073;26;19944;-84
2024/04/12 17:00:13;;;;;;;;;;;;;;;10.29;100.00;100975.34;5347293;26;19949;-86
2024/04/12 17:02:39;;;;;;;;;;;;;;;10.25;100.00;100971.06;5379618;26;19998;-84
2024/04/12 17:05:04;;;;;;;;;;;;;;;10.15;100.00;100973.03;5379874;26;19942;-89
2024/04/12 17:07:29;;;;;;;;;;;;;;;10.10;100.00;100967.84;5348028;26;19941;-84
2024/04/12 17:09:58;;;;;;;;;;;;;;;10.05;100.00;100974.13;5378968;26;19935;-85
2024/04/12 17:12:23;;;;;;;;;;;;;;;9.97;100.00;100969.88;5360779;26;20521;-84
2024/04/12 17:14:49;;;;;;;;;;;;;;;9.86;100.00;100977.19;5353117;26;19936;-83
2024/04/12 17:17:14;;;;;;;;;;;;;;;9.78;100.00;100963.22;5378447;26;19941;-84
2024/04/12 17:19:39;;;;;;;;;;;;;;;9.76;100.00;100960.59;5378971;26;19929;-84
2024/04/12 17:22:04;;;;;;;;;;;;;;;9.67;100.00;100965.22;5348117;26;19929;-83
2024/04/12 17:24:30;;;;;;;;;;;;;;;9.65;100.00;100959.97;5379376;26;20006;-84
2024/04/12 17:26:55;;;;;;;;;;;;;;;9.73;100.00;100955.41;5378506;26;19936;-87
2024/04/12 17:29:23;;;;;;;;;;;;;;;9.63;100.00;100954.69;5387068;26;19949;-84
2024/04/12 17:31:48;;;;;;;;;;;;;;;9.56;100.00;100950.44;5382893;26;19929;-84
2024/04/12 17:34:13;;;;;;;;;;;;;;;9.26;100.00;100949.28;5350446;26;19936;-82
2024/04/12 17:36:38;;;;;;;;;;;;;;;9.05;100.00;100950.53;5381613;26;19937;-83
2024/04/12 17:39:11;;;;;;;;;;;;;;;8.93;100.00;100956.03;5350468;26;19930;-82
2024/04/12 17:41:39;;;;;;;;;;;;;;;8.78;100.00;100952.75;5380637;26;19938;-83
2024/04/12 17:44:04;;;;;;;;;;;;;;;8.80;100.00;100958.88;5382769;26;20562;-82
2024/04/12 17:46:30;;;;;;;;;;;;;;;8.69;100.00;100961.69;5381996;26;19941;-82
2024/04/12 17:48:57;;;;;;;;;;;;;;;8.59;100.00;100970.69;5382636;26;20268;-82
2024/04/12 17:51:23;;;;;;;;;;;;;;;8.43;100.00;100967.41;5351127;26;20368;-83
2024/04/12 17:53:49;;;;;;;;;;;;;;;8.34;100.00;100963.13;5382045;26;19930;-82
2024/04/12 17:56:14;;;;;;;;;;;;;;;7.92;100.00;100969.88;5350731;26;19999;-83
2024/04/12 17:58:39;;;;;;;;;;;;;;;11.48;100.00;100959.16;5350669;26;19929;-84
2024/04/12 18:01:05;;;;;;;;;;;;;;;8.40;100.00;100959.50;5352794;26;19940;-83
2024/04/12 18:03:31;;;;;;;;;;;;;;;8.42;100.00;100968.25;5364795;26;19929;-83
2024/04/12 18:05:56;;;;;;;;;;;;;;;7.97;100.00;100978.59;5382211;26;19929;-83
2024/04/12 18:08:24;;;;;;;;;;;;;;;7.76;100.00;100969.19;5352510;26;19933;-84
2024/04/12 18:10:56;;;;;;;;;;;;;;;7.76;100.00;100969.19;5381217;26;19980;-83
2024/04/12 18:13:22;;;;;;;;;;;;;;;7.79;100.00;100979.72;5379481;26;19929;-83
2024/04/12 18:15:47;;;;;;;;;;;;;;;7.67;100.00;100975.44;5382449;26;20028;-85
2024/04/12 18:18:12;;;;;;;;;;;;;;;7.72;100.00;100978.03;5350029;26;19941;-83
2024/04/12 18:20:38;;;;;;;;;;;;;;;7.88;100.00;100978.69;5337512;26;19933;-88
2024/04/12 18:23:03;;;;;;;;;;;;;;;8.13;100.00;100973.97;5349813;26;19929;-83
2024/04/12 18:25:28;;;;;;;;;;;;;;;8.14;100.00;100976.59;5383119;26;19934;-86
2024/04/12 18:27:53;;;;;;;;;;;;;;;8.26;100.00;100979.97;5380912;26;19969;-83
2024/04/12 18:30:19;;;;;;;;;;;;;;;8.43;100.00;100983.25;5384076;26;19930;-83
2024/04/12 18:32:44;;;;;;;;;;;;;;;8.54;100.00;100991.88;5381704;26;20276;-83
2024/04/12 18:35:10;;;;;;;;;;;;;;;8.59;100.00;100985.69;5382215;26;19938;-85
2024/04/12 18:45:47;;;;;;;;;;;;;;;9.06;100.00;100982.25;5383369;26;19998;-85
2024/04/12 18:48:13;;;;;;;;;;;;;;;9.17;100.00;100989.09;5381060;26;19938;-83
2024/04/12 18:50:38;;;;;;;;;;;;;;;9.23;100.00;100981.94;5380986;26;19937;-83
2024/04/12 18:53:03;;;;;;;;;;;;;;;9.33;100.00;100997.63;5381510;26;20396;-83
2024/04/12 18:55:29;;;;;;;;;;;;;;;9.41;100.00;100990.41;5382478;26;19998;-84
2024/04/12 18:57:54;;;;;;;;;;;;;;;9.48;100.00;100997.34;5377960;26;19937;-84
2024/04/12 19:00:42;;;;;;;;;;;;;;;9.53;100.00;100998.13;5382272;26;19936;-92
2024/04/12 19:03:07;;;;;;;;;;;;;;;9.61;100.00;101003.28;5349634;26;19941;-83
2024/04/12 19:05:37;;;;;;;;;;;;;;;9.67;100.00;101005.81;5381143;26;19934;-81
2024/04/12 19:08:02;;;;;;;;;;;;;;;9.73;100.00;101002.16;5382473;26;19996;-85
2024/04/12 19:10:27;;;;;;;;;;;;;;;9.78;100.00;101005.56;5382420;26;19930;-81
2024/04/12 19:12:53;;;;;;;;;;;;;;;9.82;100.00;101007.25;5380905;26;20939;-81
2024/04/12 19:15:18;;;;;;;;;;;;;;;9.86;100.00;101003.66;5382326;26;20004;-89
2024/04/12 19:17:43;;;;;;;;;;;;;;;9.91;100.00;101008.88;5350049;26;19941;-82
2024/04/12 19:20:12;;;;;;;;;;;;;;;9.96;100.00;100999.91;5381688;26;20262;-83
2024/04/12 19:22:40;;;;;;;;;;;;;;;10.02;100.00;101006.88;5321999;26;19929;-86
2024/04/12 19:25:08;;;;;;;;;;;;;;;10.09;100.00;101010.25;5380458;26;19936;-84
2024/04/12 19:27:37;;;;;;;;;;;;;;;10.10;100.00;100999.63;5379435;26;19929;-84
2024/04/12 19:30:03;;;;;;;;;;;;;;;10.14;100.00;101009.22;5380121;26;19930;-83
2024/04/12 19:32:31;;;;;;;;;;;;;;;10.18;100.00;101010.91;5349626;26;19961;-81
2024/04/12 19:34:56;;;;;;;;;;;;;;;10.21;100.00;101003.81;5380261;26;19929;-87
2024/04/12 19:37:21;;;;;;;;;;;;;;;10.41;100.00;101006.06;5333939;26;19929;-88
2024/04/12 19:39:49;;;;;;;;;;;;;;;8.85;100.00;101009.88;5380643;26;20353;-81
2024/04/12 19:42:14;;;;;;;;;;;;;;;7.94;100.00;101011.16;5347998;26;19937;-81
2024/04/12 19:44:40;;;;;;;;;;;;;;;7.57;100.00;101010.75;5348682;26;19930;-85
2024/04/12 19:47:31;;;;;;;;;;;;;;;7.26;100.00;101011.06;5350128;26;19941;-93
2024/04/12 19:49:56;;;;;;;;;;;;;;;6.99;100.00;101013.06;5349076;26;20268;-83
2024/04/12 19:52:22;;;;;;;;;;;;;;;6.91;100.00;101006.97;5378034;26;20260;-81
2024/04/12 19:54:49;;;;;;;;;;;;;;;6.82;100.00;101000.00;5379886;26;19936;-87
2024/04/12 19:57:15;;;;;;;;;;;;;;;6.61;100.00;101001.06;5378669;26;20363;-90
2024/04/12 19:59:43;;;;;;;;;;;;;;;6.62;100.00;101008.09;5333289;26;19999;-86
2024/04/12 20:02:09;;;;;;;;;;;;;;;6.52;100.00;100996.72;5348403;26;20411;-83
2024/04/12 20:04:34;;;;;;;;;;;;;;;6.43;100.00;100990.63;5379820;26;19941;-84
2024/04/12 20:06:59;;;;;;;;;;;;;;;6.33;100.00;100995.09;5380267;26;19932;-92
2024/04/12 20:09:25;;;;;;;;;;;;;;;6.28;100.00;101002.16;5379738;26;20365;-86
2024/04/12 20:11:50;;;;;;;;;;;;;;;6.22;100.00;100984.63;5335039;26;19957;-80
2024/04/12 20:14:15;;;;;;;;;;;;;;;6.18;100.00;100991.66;5379152;26;19945;-89
2024/04/12 20:16:40;;;;;;;;;;;;;;;6.13;100.00;100985.56;5379470;26;20369;-83
2024/04/12 20:19:06;;;;;;;;;;;;;;;6.06;100.00;100985.59;5379582;26;19934;-85
2024/04/12 20:21:31;;;;;;;;;;;;;;;5.99;100.00;100985.63;5347466;26;19930;-86
2024/04/12 20:23:57;;;;;;;;;;;;;;;6.03;100.00;100981.25;5379018;26;19929;-87
2024/04/12 20:26:22;;;;;;;;;;;;;;;5.94;100.00;100984.75;5345557;26;19971;-85
2024/04/12 20:28:48;;;;;;;;;;;;;;;5.87;100.00;100985.66;5379930;26;19936;-84
2024/04/12 20:36:38;;;;;;;;;;;;;;;5.68;100.00;100971.72;5378096;26;20024;-83
2024/04/12 20:39:09;;;;;;;;;;;;;;;5.70;100.00;100966.47;5378256;26;19930;-85
2024/04/12 20:41:35;;;;;;;;;;;;;;;5.62;100.00;100972.59;5346390;26;20454;-83
2024/04/12 20:44:01;;;;;;;;;;;;;;;5.57;100.00;100977.00;5378952;26;19943;-85
2024/04/12 20:46:34;;;;;;;;;;;;;;;5.68;100.00;100968.19;5345694;26;20432;-90
2024/04/12 20:49:00;;;;;;;;;;;;;;;5.50;100.00;100970.00;5346690;26;20621;-84
2024/04/12 20:51:27;;;;;;;;;;;;;;;5.50;100.00;100970.00;5346382;26;19937;-86
2024/04/12 20:53:52;;;;;;;;;;;;;;;5.48;100.00;100974.41;5378929;26;19930;-84
2024/04/12 20:56:19;;;;;;;;;;;;;;;5.51;100.00;100974.41;5377599;26;20044;-89
2024/04/12 20:58:45;;;;;;;;;;;;;;;5.43;100.00;100966.53;5346879;26;20363;-84
2024/04/12 21:01:13;;;;;;;;;;;;;;;5.40;100.00;100970.94;5378731;26;19937;-89
2024/04/12 21:03:39;;;;;;;;;;;;;;;5.34;100.00;100963.91;5346806;26;19929;-86
2024/04/12 21:06:04;;;;;;;;;;;;;;;5.42;100.00;100962.13;5346567;26;19937;-88
2024/04/12 21:08:30;;;;;;;;;;;;;;;5.43;100.00;100958.63;5350826;26;19930;-85
2024/04/12 21:11:01;;;;;;;;;;;;;;;5.37;100.00;100966.53;5381131;26;19945;-85